createdAt,value
2018-09-30T00:00:55.961Z,9.23
2018-09-30T00:03:24.041Z,8.93
2018-09-30T00:05:54.324Z,10.07
2018-09-30T00:08:25.894Z,9.93
2018-09-30T00:11:00.699Z,12.73
2018-09-30T00:13:28.833Z,7.07
2018-09-30T00:15:56.957Z,7.03
2018-09-30T00:18:25.004Z,10.90
2018-09-30T00:20:53.258Z,10.80
2018-09-30T00:23:21.370Z,8.90
2018-09-30T00:25:54.949Z,8.67
2018-09-30T00:28:23.120Z,9.40
2018-09-30T00:30:51.199Z,9.00
2018-09-30T00:33:19.292Z,7.77
2018-09-30T00:35:47.357Z,11.07
2018-09-30T00:38:15.458Z,7.07
2018-09-30T00:40:43.663Z,10.90
2018-09-30T00:43:11.785Z,9.43
2018-09-30T00:45:39.952Z,14.37
2018-09-30T00:48:08.223Z,9.13
2018-09-30T00:50:36.387Z,7.83
2018-09-30T00:53:04.526Z,8.23
2018-09-30T00:55:32.579Z,9.20
2018-09-30T00:58:00.711Z,7.67
2018-09-30T01:00:28.860Z,9.40
2018-09-30T01:02:57.071Z,8.67
2018-09-30T01:05:25.144Z,9.47
2018-09-30T01:07:53.284Z,7.80
2018-09-30T01:10:21.415Z,8.20
2018-09-30T01:12:49.506Z,9.90
2018-09-30T01:15:17.635Z,10.30
2018-09-30T01:17:45.880Z,10.03
2018-09-30T01:20:14.034Z,12.23
2018-09-30T01:22:42.128Z,10.30
2018-09-30T01:25:10.458Z,11.13
2018-09-30T01:27:38.651Z,9.07
2018-09-30T01:30:06.758Z,9.93
2018-09-30T01:32:34.953Z,10.87
2018-09-30T01:35:03.196Z,7.93
2018-09-30T01:37:31.264Z,11.57
2018-09-30T01:39:59.366Z,8.50
2018-09-30T01:42:27.438Z,8.13
2018-09-30T01:44:55.573Z,10.27
2018-09-30T01:47:23.630Z,6.97
2018-09-30T01:49:51.727Z,7.07
2018-09-30T01:52:31.294Z,8.40
2018-09-30T01:54:59.423Z,5.73
2018-09-30T01:57:27.478Z,7.80
2018-09-30T01:59:55.553Z,11.70
2018-09-30T02:02:23.796Z,7.93
2018-09-30T02:04:51.946Z,13.13
2018-09-30T02:07:20.110Z,8.40
2018-09-30T02:09:48.123Z,6.40
2018-09-30T02:12:16.277Z,6.97
2018-09-30T02:14:44.356Z,6.23
2018-09-30T02:17:12.427Z,7.77
2018-09-30T02:19:40.560Z,7.57
2018-09-30T02:22:08.588Z,8.67
2018-09-30T02:24:36.668Z,6.77
2018-09-30T02:27:04.729Z,8.23
2018-09-30T02:29:32.808Z,7.87
2018-09-30T02:32:00.966Z,9.23
2018-09-30T02:34:29.083Z,10.67
2018-09-30T02:36:57.157Z,9.30
2018-09-30T02:39:25.228Z,10.57
2018-09-30T02:41:53.342Z,7.47
2018-09-30T02:44:21.523Z,7.93
2018-09-30T02:46:49.736Z,10.43
2018-09-30T02:49:17.814Z,10.53
2018-09-30T02:51:45.855Z,5.77
2018-09-30T02:54:14.088Z,11.80
2018-09-30T02:56:42.375Z,9.70
2018-09-30T02:59:10.469Z,8.83
2018-09-30T03:01:38.560Z,9.03
2018-09-30T03:04:06.617Z,8.67
2018-09-30T03:06:40.215Z,8.47
2018-09-30T03:09:11.814Z,10.07
2018-09-30T03:11:40.528Z,6.53
2018-09-30T03:14:08.692Z,7.37
2018-09-30T03:16:36.868Z,6.97
2018-09-30T03:19:04.943Z,9.17
2018-09-30T03:21:33.012Z,8.03
2018-09-30T03:24:01.142Z,7.50
2018-09-30T03:26:29.233Z,7.03
2018-09-30T03:28:57.462Z,9.70
2018-09-30T03:31:25.886Z,9.27
2018-09-30T03:33:54.175Z,8.03
2018-09-30T03:36:22.300Z,7.07
2018-09-30T03:38:50.396Z,7.87
2018-09-30T03:41:18.491Z,7.07
2018-09-30T03:43:46.528Z,8.20
2018-09-30T03:46:14.602Z,9.37
2018-09-30T03:48:42.802Z,5.40
2018-09-30T03:51:11.066Z,10.80
2018-09-30T03:53:39.210Z,9.83
2018-09-30T03:56:07.300Z,8.67
2018-09-30T03:58:35.398Z,9.23
2018-09-30T04:01:03.675Z,8.03
2018-09-30T04:03:31.773Z,10.73
2018-09-30T04:05:59.865Z,7.67
2018-09-30T04:08:27.947Z,8.93
2018-09-30T04:10:56.041Z,8.90
2018-09-30T04:13:24.101Z,9.03
2018-09-30T04:15:52.212Z,11.00
2018-09-30T04:18:20.262Z,10.67
2018-09-30T04:20:48.353Z,8.27
2018-09-30T04:23:16.480Z,13.73
2018-09-30T04:25:44.596Z,8.50
2018-09-30T04:28:12.639Z,7.83
2018-09-30T04:30:40.738Z,10.27
2018-09-30T04:33:08.799Z,6.67
2018-09-30T04:35:37.052Z,9.13
2018-09-30T04:38:05.404Z,8.13
2018-09-30T04:40:33.473Z,11.37
2018-09-30T04:43:01.584Z,5.77
2018-09-30T04:45:29.694Z,7.47
2018-09-30T04:47:57.742Z,7.53
2018-09-30T04:50:25.789Z,7.87
2018-09-30T04:52:53.885Z,7.10
2018-09-30T04:55:21.945Z,10.60
2018-09-30T04:57:50.150Z,7.47
2018-09-30T05:00:18.190Z,6.27
2018-09-30T05:02:46.263Z,9.47
2018-09-30T05:05:14.321Z,8.83
2018-09-30T05:07:42.407Z,12.07
2018-09-30T05:10:10.540Z,8.33
2018-09-30T05:12:38.639Z,7.20
2018-09-30T05:15:06.782Z,8.23
2018-09-30T05:17:34.902Z,7.63
2018-09-30T05:20:03.034Z,8.27
2018-09-30T05:22:31.135Z,7.93
2018-09-30T05:24:59.206Z,8.87
2018-09-30T05:27:27.323Z,8.60
2018-09-30T05:29:55.432Z,8.93
2018-09-30T05:32:23.523Z,7.23
2018-09-30T05:34:51.604Z,7.03
2018-09-30T05:37:19.855Z,9.43
2018-09-30T05:39:47.903Z,7.10
2018-09-30T05:42:16.132Z,9.00
2018-09-30T05:44:44.374Z,8.17
2018-09-30T05:47:12.513Z,6.20
2018-09-30T05:49:40.724Z,8.10
2018-09-30T05:52:08.855Z,7.20
2018-09-30T05:54:36.952Z,8.93
2018-09-30T05:57:05.096Z,7.80
2018-09-30T05:59:33.180Z,6.20
2018-09-30T06:02:01.284Z,8.27
2018-09-30T06:04:29.355Z,6.57
2018-09-30T06:06:57.452Z,8.33
2018-09-30T06:09:25.651Z,6.87
2018-09-30T06:11:53.711Z,5.90
2018-09-30T06:14:21.843Z,6.70
2018-09-30T06:16:49.930Z,7.70
2018-09-30T06:19:18.043Z,6.87
2018-09-30T06:21:46.220Z,6.20
2018-09-30T06:24:14.390Z,4.97
2018-09-30T06:26:42.560Z,6.67
2018-09-30T06:29:10.662Z,9.60
2018-09-30T06:31:38.747Z,8.03
2018-09-30T06:34:06.819Z,5.87
2018-09-30T06:36:41.872Z,10.27
2018-09-30T06:39:10.502Z,9.20
2018-09-30T06:41:38.664Z,8.97
2018-09-30T06:44:07.185Z,5.07
2018-09-30T06:46:35.283Z,6.87
2018-09-30T06:49:03.432Z,5.93
2018-09-30T06:51:31.497Z,7.47
2018-09-30T06:53:59.677Z,7.53
2018-09-30T06:56:27.721Z,7.20
2018-09-30T06:58:55.835Z,6.43
2018-09-30T07:01:24.012Z,7.07
2018-09-30T07:03:52.099Z,7.70
2018-09-30T07:06:20.176Z,8.27
2018-09-30T07:08:48.217Z,9.37
2018-09-30T07:11:16.336Z,8.73
2018-09-30T07:13:44.559Z,6.67
2018-09-30T07:16:12.629Z,10.43
2018-09-30T07:18:40.694Z,10.23
2018-09-30T07:21:08.829Z,7.77
2018-09-30T07:23:37.077Z,5.30
2018-09-30T07:26:05.224Z,7.17
2018-09-30T07:28:33.328Z,6.20
2018-09-30T07:31:01.424Z,7.83
2018-09-30T07:33:29.543Z,13.13
2018-09-30T07:35:57.648Z,11.07
2018-09-30T07:38:25.740Z,5.83
2018-09-30T07:40:53.820Z,6.20
2018-09-30T07:43:21.892Z,5.73
2018-09-30T07:45:50.101Z,6.07
2018-09-30T07:48:18.322Z,9.07
2018-09-30T07:50:46.412Z,12.07
2018-09-30T07:53:14.684Z,9.87
2018-09-30T07:55:42.917Z,7.53
2018-09-30T07:58:11.032Z,4.43
2018-09-30T08:00:39.317Z,7.10
2018-09-30T08:03:07.411Z,6.50
2018-09-30T08:05:35.467Z,7.63
2018-09-30T08:08:03.543Z,6.67
2018-09-30T08:10:31.804Z,10.40
2018-09-30T08:12:59.897Z,5.83
2018-09-30T08:15:27.974Z,13.00
2018-09-30T08:17:56.069Z,8.27
2018-09-30T08:20:24.475Z,6.57
2018-09-30T08:22:52.555Z,7.17
2018-09-30T08:25:20.661Z,10.73
2018-09-30T08:27:48.723Z,5.40
2018-09-30T08:30:16.881Z,6.40
2018-09-30T08:32:44.989Z,7.47
2018-09-30T08:35:13.160Z,5.80
2018-09-30T08:37:46.713Z,5.53
2018-09-30T08:40:19.058Z,5.53
2018-09-30T08:42:47.149Z,8.47
2018-09-30T08:45:15.266Z,7.00
2018-09-30T08:47:43.449Z,6.27
2018-09-30T08:50:11.698Z,7.47
2018-09-30T08:52:39.805Z,6.23
2018-09-30T08:55:08.008Z,5.57
2018-09-30T08:57:36.129Z,7.77
2018-09-30T09:00:04.280Z,7.43
2018-09-30T09:02:32.363Z,6.60
2018-09-30T09:05:00.470Z,8.33
2018-09-30T09:07:28.559Z,6.10
2018-09-30T09:09:56.752Z,6.23
2018-09-30T09:12:24.870Z,8.67
2018-09-30T09:14:52.941Z,7.17
2018-09-30T09:17:21.029Z,9.67
2018-09-30T09:19:49.125Z,8.33
2018-09-30T09:22:17.207Z,5.67
2018-09-30T09:24:45.332Z,6.53
2018-09-30T09:27:13.560Z,4.67
2018-09-30T09:29:41.688Z,5.40
2018-09-30T09:32:10.831Z,7.93
2018-09-30T09:34:40.878Z,6.27
2018-09-30T09:37:08.973Z,7.03
2018-09-30T09:39:37.065Z,5.37
2018-09-30T09:42:05.151Z,7.60
2018-09-30T09:44:33.212Z,5.77
2018-09-30T09:47:01.350Z,5.83
2018-09-30T09:49:29.428Z,5.23
2018-09-30T09:51:57.624Z,7.10
2018-09-30T09:54:26.520Z,12.07
2018-09-30T09:56:54.608Z,4.77
2018-09-30T09:59:22.696Z,6.07
2018-09-30T10:01:50.715Z,5.87
2018-09-30T10:04:18.783Z,6.53
2018-09-30T10:06:46.895Z,6.30
2018-09-30T10:09:15.051Z,4.00
2018-09-30T10:11:43.114Z,5.23
2018-09-30T10:14:11.224Z,5.63
2018-09-30T10:16:39.325Z,6.57
2018-09-30T10:19:07.408Z,7.43
2018-09-30T10:21:35.486Z,5.30
2018-09-30T10:24:03.579Z,8.10
2018-09-30T10:26:31.676Z,5.03
2018-09-30T10:28:59.800Z,5.23
2018-09-30T10:31:27.888Z,6.27
2018-09-30T10:33:56.137Z,6.00
2018-09-30T10:36:24.213Z,6.67
2018-09-30T10:38:52.410Z,4.57
2018-09-30T10:41:20.429Z,8.10
2018-09-30T10:43:48.499Z,7.67
2018-09-30T10:46:16.601Z,7.70
2018-09-30T10:48:44.709Z,10.07
2018-09-30T10:51:12.847Z,7.27
2018-09-30T10:53:40.917Z,4.33
2018-09-30T10:56:09.095Z,5.33
2018-09-30T10:58:37.173Z,7.07
2018-09-30T11:01:05.234Z,6.50
2018-09-30T11:03:33.360Z,5.00
2018-09-30T11:06:01.408Z,5.67
2018-09-30T11:08:29.473Z,5.17
2018-09-30T11:10:57.575Z,4.70
2018-09-30T11:13:25.673Z,6.73
2018-09-30T11:15:53.765Z,5.93
2018-09-30T11:18:21.950Z,4.73
2018-09-30T11:20:50.060Z,5.87
2018-09-30T11:23:18.149Z,7.70
2018-09-30T11:25:46.251Z,5.67
2018-09-30T11:28:14.355Z,6.63
2018-09-30T11:30:42.453Z,3.47
2018-09-30T11:33:10.540Z,5.83
2018-09-30T11:35:38.615Z,7.33
2018-09-30T11:38:06.709Z,6.90
2018-09-30T11:40:34.878Z,4.30
2018-09-30T11:43:03.012Z,6.07
2018-09-30T11:45:31.092Z,4.00
2018-09-30T11:47:59.279Z,6.93
2018-09-30T11:50:27.355Z,5.27
2018-09-30T11:52:55.491Z,8.47
2018-09-30T11:55:23.743Z,4.90
2018-09-30T11:57:51.820Z,5.93
2018-09-30T12:00:19.896Z,4.43
2018-09-30T12:02:48.063Z,6.53
2018-09-30T12:05:16.134Z,4.97
2018-09-30T12:07:44.202Z,3.90
2018-09-30T12:10:12.242Z,3.17
2018-09-30T12:12:40.339Z,6.37
2018-09-30T12:15:08.429Z,6.60
2018-09-30T12:17:36.643Z,6.97
2018-09-30T12:20:04.718Z,4.57
2018-09-30T12:22:32.812Z,9.70
2018-09-30T12:25:00.876Z,5.33
2018-09-30T12:27:28.986Z,5.10
2018-09-30T12:29:57.058Z,4.23
2018-09-30T12:32:25.160Z,6.37
2018-09-30T12:34:53.299Z,4.10
2018-09-30T12:37:21.403Z,9.63
2018-09-30T12:39:49.533Z,3.50
2018-09-30T12:42:17.621Z,6.30
2018-09-30T12:44:45.717Z,5.20
2018-09-30T12:47:13.805Z,5.17
2018-09-30T12:49:41.877Z,5.00
2018-09-30T12:52:10.098Z,4.90
2018-09-30T12:54:38.170Z,5.67
2018-09-30T12:57:06.325Z,3.80
2018-09-30T12:59:34.375Z,6.33
2018-09-30T13:02:02.524Z,3.93
2018-09-30T13:04:30.608Z,10.27
2018-09-30T13:06:58.719Z,6.07
2018-09-30T13:09:26.815Z,6.97
2018-09-30T13:11:54.878Z,4.13
2018-09-30T13:14:22.952Z,4.90
2018-09-30T13:16:51.079Z,9.23
2018-09-30T13:19:19.166Z,5.13
2018-09-30T13:21:47.291Z,5.40
2018-09-30T13:24:15.399Z,5.00
2018-09-30T13:26:43.531Z,6.63
2018-09-30T13:29:11.608Z,3.40
2018-09-30T13:31:39.700Z,4.90
2018-09-30T13:34:08.028Z,5.13
2018-09-30T13:36:36.092Z,3.67
2018-09-30T13:39:06.284Z,5.40
2018-09-30T13:41:34.379Z,8.57
2018-09-30T13:44:02.514Z,5.17
2018-09-30T13:46:30.642Z,5.50
2018-09-30T13:48:58.675Z,6.00
2018-09-30T13:51:26.752Z,3.50
2018-09-30T13:53:54.929Z,4.47
2018-09-30T13:56:23.054Z,5.40
2018-09-30T13:58:51.136Z,6.53
2018-09-30T14:01:19.243Z,6.53
2018-09-30T14:03:47.315Z,5.33
2018-09-30T14:06:15.405Z,3.70
2018-09-30T14:08:43.661Z,7.63
2018-09-30T14:11:11.733Z,5.63
2018-09-30T14:13:40.006Z,5.90
2018-09-30T14:16:08.088Z,5.23
2018-09-30T14:18:36.216Z,4.13
2018-09-30T14:21:04.283Z,4.87
2018-09-30T14:23:32.510Z,3.40
2018-09-30T14:26:00.764Z,4.23
2018-09-30T14:28:29.056Z,5.87
2018-09-30T14:30:57.176Z,6.63
2018-09-30T14:33:25.285Z,5.80
2018-09-30T14:35:53.435Z,5.40
2018-09-30T14:38:21.536Z,5.27
2018-09-30T14:40:49.584Z,5.97
2018-09-30T14:43:17.781Z,3.17
2018-09-30T14:45:45.855Z,6.37
2018-09-30T14:48:14.108Z,4.50
2018-09-30T14:50:42.150Z,4.20
2018-09-30T14:53:10.256Z,6.17
2018-09-30T14:55:38.650Z,3.23
2018-09-30T14:58:06.726Z,4.30
2018-09-30T15:00:34.833Z,3.37
2018-09-30T15:03:02.882Z,5.23
2018-09-30T15:05:31.003Z,4.73
2018-09-30T15:07:59.172Z,4.10
2018-09-30T15:10:27.296Z,2.50
2018-09-30T15:12:55.390Z,3.33
2018-09-30T15:15:23.517Z,4.30
2018-09-30T15:17:51.579Z,5.77
2018-09-30T15:20:19.758Z,6.23
2018-09-30T15:22:47.893Z,2.97
2018-09-30T15:25:15.990Z,4.50
2018-09-30T15:27:44.072Z,4.40
2018-09-30T15:30:12.265Z,5.07
2018-09-30T15:32:40.343Z,5.03
2018-09-30T15:35:08.470Z,4.07
2018-09-30T15:37:36.598Z,5.20
2018-09-30T15:40:04.694Z,4.17
2018-09-30T15:42:32.760Z,3.37
2018-09-30T15:45:00.829Z,6.53
2018-09-30T15:47:28.887Z,2.93
2018-09-30T15:49:57.018Z,5.03
2018-09-30T15:52:25.126Z,4.93
2018-09-30T15:54:53.254Z,3.53
2018-09-30T15:57:21.295Z,5.13
2018-09-30T15:59:49.432Z,4.93
2018-09-30T16:02:17.517Z,4.57
2018-09-30T16:04:45.737Z,7.87
2018-09-30T16:07:13.810Z,3.87
2018-09-30T16:09:41.885Z,4.90
2018-09-30T16:12:10.063Z,2.50
2018-09-30T16:14:38.148Z,4.07
2018-09-30T16:17:06.223Z,5.33
2018-09-30T16:19:34.348Z,4.97
2018-09-30T16:22:02.410Z,6.47
2018-09-30T16:24:30.519Z,6.20
2018-09-30T16:26:58.593Z,6.90
2018-09-30T16:29:26.740Z,6.83
2018-09-30T16:31:54.897Z,4.07
2018-09-30T16:34:23.008Z,4.33
2018-09-30T16:36:51.107Z,6.30
2018-09-30T16:39:19.239Z,5.10
2018-09-30T16:41:47.576Z,7.13
2018-09-30T16:44:15.708Z,7.83
2018-09-30T16:46:43.800Z,6.53
2018-09-30T16:49:11.851Z,6.33
2018-09-30T16:51:39.964Z,8.27
2018-09-30T16:54:08.019Z,4.57
2018-09-30T16:56:36.085Z,5.33
2018-09-30T16:59:04.431Z,5.60
2018-09-30T17:01:32.687Z,5.07
2018-09-30T17:04:00.818Z,6.30
2018-09-30T17:06:28.935Z,7.37
2018-09-30T17:08:57.142Z,5.83
2018-09-30T17:11:25.260Z,5.97
2018-09-30T17:13:53.394Z,6.07
2018-09-30T17:16:21.496Z,6.60
2018-09-30T17:18:49.595Z,5.03
2018-09-30T17:21:17.680Z,6.57
2018-09-30T17:23:45.903Z,9.53
2018-09-30T17:26:14.015Z,6.87
2018-09-30T17:28:42.099Z,9.73
2018-09-30T17:31:10.278Z,10.50
2018-09-30T17:33:38.338Z,10.57
2018-09-30T17:36:06.461Z,6.93
2018-09-30T17:38:34.557Z,10.57
2018-09-30T17:41:02.689Z,8.80
2018-09-30T17:43:30.804Z,6.60
2018-09-30T17:45:59.004Z,8.07
2018-09-30T17:48:27.114Z,6.67
2018-09-30T17:50:55.229Z,9.47
2018-09-30T17:53:23.432Z,13.47
2018-09-30T17:55:51.544Z,8.17
2018-09-30T17:58:19.642Z,11.13
2018-09-30T18:00:47.916Z,7.63
2018-09-30T18:03:16.071Z,9.00
2018-09-30T18:05:44.200Z,11.53
2018-09-30T18:08:12.379Z,10.53
2018-09-30T18:10:40.510Z,10.43
2018-09-30T18:13:08.636Z,12.27
2018-09-30T18:15:36.722Z,19.10
2018-09-30T18:18:04.884Z,14.53
2018-09-30T18:20:33.027Z,15.53
2018-09-30T18:23:01.232Z,12.03
2018-09-30T18:25:29.340Z,14.10
2018-09-30T18:27:57.427Z,11.57
2018-09-30T18:30:25.525Z,13.03
2018-09-30T18:32:53.663Z,11.20
2018-09-30T18:35:21.773Z,11.03
2018-09-30T18:37:49.867Z,17.37
2018-09-30T18:40:17.961Z,17.33
2018-09-30T18:42:46.008Z,18.30
2018-09-30T18:45:14.096Z,12.77
2018-09-30T18:47:42.183Z,18.53
2018-09-30T18:50:10.341Z,15.23
2018-09-30T18:52:38.428Z,14.53
2018-09-30T18:55:06.476Z,11.30
2018-09-30T18:57:34.698Z,15.43
2018-09-30T19:00:02.791Z,14.23
2018-09-30T19:02:30.927Z,12.70
2018-09-30T19:04:59.078Z,14.00
2018-09-30T19:07:27.142Z,13.53
2018-09-30T19:09:55.200Z,10.83
2018-09-30T19:12:23.289Z,12.40
2018-09-30T19:14:51.348Z,18.33
2018-09-30T19:17:19.441Z,14.00
2018-09-30T19:19:48.423Z,13.47
2018-09-30T19:22:16.538Z,11.10
2018-09-30T19:24:44.613Z,14.83
2018-09-30T19:27:12.756Z,18.00
2018-09-30T19:29:40.830Z,17.07
2018-09-30T19:32:08.914Z,15.67
2018-09-30T19:34:36.971Z,18.07
2018-09-30T19:37:05.130Z,19.73
2018-09-30T19:39:33.261Z,19.50
2018-09-30T19:42:01.368Z,19.33
2018-09-30T19:44:29.467Z,18.67
2018-09-30T19:46:57.555Z,17.53
2018-09-30T19:49:25.675Z,20.57
2018-09-30T19:51:53.766Z,21.97
2018-09-30T19:54:21.879Z,19.07
2018-09-30T19:56:49.953Z,16.00
2018-09-30T19:59:18.099Z,24.07
2018-09-30T20:01:46.164Z,26.07
2018-09-30T20:04:14.309Z,28.40
2018-09-30T20:06:42.421Z,23.07
2018-09-30T20:09:10.657Z,27.07
2018-09-30T20:11:39.001Z,26.93
2018-09-30T20:14:07.166Z,28.63
2018-09-30T20:16:35.350Z,31.13
2018-09-30T20:19:03.487Z,28.67
2018-09-30T20:21:31.651Z,31.20
2018-09-30T20:23:59.756Z,35.80
2018-09-30T20:26:27.950Z,28.03
2018-09-30T20:28:56.049Z,31.70
2018-09-30T20:31:24.166Z,30.03
2018-09-30T20:33:52.271Z,27.97
2018-09-30T20:36:20.366Z,28.27
2018-09-30T20:38:48.602Z,25.63
2018-09-30T20:41:16.697Z,26.67
2018-09-30T20:43:44.768Z,20.17
2018-09-30T20:46:12.861Z,26.63
2018-09-30T20:48:40.956Z,27.60
2018-09-30T20:51:09.007Z,21.07
2018-09-30T20:53:37.108Z,22.37
2018-09-30T20:56:05.236Z,22.20
2018-09-30T20:58:33.343Z,20.83
2018-09-30T21:01:01.463Z,22.43
2018-09-30T21:03:29.575Z,19.77
2018-09-30T21:06:37.294Z,18.93
2018-09-30T21:09:08.216Z,18.40
2018-09-30T21:11:36.365Z,20.27
2018-09-30T21:14:04.910Z,17.10
2018-09-30T21:16:32.990Z,20.63
2018-09-30T21:19:01.127Z,20.37
2018-09-30T21:21:29.189Z,21.97
2018-09-30T21:23:57.380Z,25.73
2018-09-30T21:26:25.453Z,22.53
2018-09-30T21:28:53.604Z,22.27
2018-09-30T21:31:21.694Z,38.00
2018-09-30T21:33:49.793Z,26.57
2018-09-30T21:36:17.991Z,29.63
2018-09-30T21:38:46.062Z,24.77
2018-09-30T21:41:14.168Z,23.73
2018-09-30T21:43:42.271Z,28.63
2018-09-30T21:46:10.366Z,23.03
2018-09-30T21:48:38.567Z,23.33
2018-09-30T21:51:06.584Z,26.80
2018-09-30T21:53:34.708Z,24.33
2018-09-30T21:56:02.744Z,25.10
2018-09-30T21:58:30.819Z,25.63
2018-09-30T22:01:02.149Z,28.43
2018-09-30T22:03:30.442Z,25.93
2018-09-30T22:05:58.676Z,25.60
2018-09-30T22:08:26.767Z,26.13
2018-09-30T22:10:54.910Z,23.43
2018-09-30T22:13:22.979Z,25.83
2018-09-30T22:15:51.066Z,25.77
2018-09-30T22:18:19.159Z,26.37
2018-09-30T22:20:47.232Z,22.57
2018-09-30T22:23:15.290Z,24.53
2018-09-30T22:25:43.423Z,24.63
2018-09-30T22:28:11.504Z,24.27
2018-09-30T22:30:39.706Z,24.43
2018-09-30T22:33:07.826Z,23.03
2018-09-30T22:35:35.905Z,25.10
2018-09-30T22:38:03.992Z,23.17
2018-09-30T22:40:32.065Z,21.93
2018-09-30T22:43:00.146Z,24.93
2018-09-30T22:45:28.270Z,20.70
2018-09-30T22:47:56.386Z,21.77
2018-09-30T22:50:24.465Z,20.83
2018-09-30T22:52:52.497Z,21.83
2018-09-30T22:55:20.635Z,23.13
2018-09-30T22:57:48.781Z,20.80
2018-09-30T23:00:16.876Z,21.83
2018-09-30T23:02:44.961Z,20.60
2018-09-30T23:05:13.065Z,23.00
2018-09-30T23:07:41.137Z,23.03
2018-09-30T23:10:10.960Z,23.27
2018-09-30T23:12:39.087Z,21.10
2018-09-30T23:15:07.167Z,22.60
2018-09-30T23:17:35.231Z,23.27
2018-09-30T23:20:03.501Z,25.20
2018-09-30T23:22:31.580Z,23.40
2018-09-30T23:24:59.793Z,24.60
2018-09-30T23:27:27.875Z,26.07
2018-09-30T23:29:56.066Z,20.97
2018-09-30T23:32:24.115Z,18.27
2018-09-30T23:34:52.211Z,20.37
2018-09-30T23:37:20.316Z,23.63
2018-09-30T23:39:48.426Z,18.20
2018-09-30T23:42:16.474Z,19.13
2018-09-30T23:44:44.558Z,19.87
2018-09-30T23:47:12.628Z,23.80
2018-09-30T23:49:40.826Z,20.97
2018-09-30T23:52:08.954Z,21.10
2018-09-30T23:54:37.052Z,24.53
2018-09-30T23:57:05.387Z,19.80
2018-09-30T23:59:33.448Z,19.73
